Time;durP1;ratioP1;P1;durP2;ratioP2;P2;SDS_P1;SDS_P2;PMS_P1;PMS_P2;Temp;Humidity;BMP_temperature;BMP_pressure;BME280_temperature;BME280_humidity;BME280_pressure;Samples;Min_cycle;Max_cycle;Signal;HPM_P1;HPM_P2
2021/07/08 00:02:14;;;;;;;4.28;3.87;;;;;;;21.44;100.00;101235.89;1729895;81;20991;-48
2021/07/08 00:04:41;;;;;;;5.67;3.80;;;;;;;21.44;100.00;101235.89;1734364;81;20993;-49
2021/07/08 00:07:10;;;;;;;6.67;3.72;;;;;;;21.44;100.00;101237.25;1755703;80;21013;-46
2021/07/08 00:09:38;;;;;;;5.22;4.35;;;;;;;21.44;100.00;101243.52;1759303;80;20978;-46
2021/07/08 00:12:06;;;;;;;4.90;3.90;;;;;;;21.45;100.00;101241.19;1721747;81;21295;-50
2021/07/08 00:14:34;;;;;;;5.70;3.72;;;;;;;21.47;100.00;101241.91;1732812;81;20962;-48
2021/07/08 00:17:00;;;;;;;5.47;4.22;;;;;;;21.48;100.00;101240.90;1756569;80;20951;-47
2021/07/08 00:19:28;;;;;;;4.75;4.10;;;;;;;21.47;100.00;101243.27;1755398;80;20990;-49
2021/07/08 00:21:54;;;;;;;6.42;4.20;;;;;;;21.47;100.00;101247.81;1759373;80;20891;-49
2021/07/08 00:24:21;;;;;;;4.92;4.42;;;;;;;21.46;100.00;101248.82;1720805;81;20959;-47
2021/07/08 00:26:47;;;;;;;5.37;4.33;;;;;;;21.43;100.00;101246.40;1731576;81;20984;-56
2021/07/08 00:29:14;;;;;;;8.43;3.98;;;;;;;21.39;100.00;101242.62;1729405;81;20986;-49
2021/07/08 00:31:41;;;;;;;6.87;3.98;;;;;;;21.33;100.00;101247.20;1763030;79;20954;-48
2021/07/08 00:34:08;;;;;;;5.83;3.90;;;;;;;21.31;100.00;101249.20;1763587;79;20954;-48
2021/07/08 00:36:35;;;;;;;6.22;4.08;;;;;;;21.29;100.00;101247.14;1748795;80;20922;-46
2021/07/08 00:39:02;;;;;;;4.95;4.45;;;;;;;21.27;100.00;101252.32;1753005;80;20927;-50
2021/07/08 00:41:28;;;;;;;5.65;3.70;;;;;;;21.21;100.00;101248.83;1750306;80;20937;-45
2021/07/08 00:43:56;;;;;;;5.17;3.92;;;;;;;21.18;100.00;101260.31;1752342;80;20982;-47
2021/07/08 00:46:22;;;;;;;4.45;3.85;;;;;;;21.18;100.00;101249.47;1756223;80;21043;-48
2021/07/08 00:48:49;;;;;;;3.85;3.27;;;;;;;21.15;100.00;101244.33;1756659;80;20915;-46
2021/07/08 00:51:16;;;;;;;5.15;3.98;;;;;;;21.11;100.00;101251.52;1787573;79;20968;-46
2021/07/08 00:53:43;;;;;;;6.35;4.65;;;;;;;21.04;100.00;101248.53;1755793;80;20946;-48
2021/07/08 00:56:10;;;;;;;4.47;3.67;;;;;;;21.02;100.00;101255.09;1759227;80;21457;-46
2021/07/08 00:58:36;;;;;;;4.22;3.83;;;;;;;21.00;100.00;101257.08;1731782;81;21068;-47
2021/07/08 01:01:04;;;;;;;4.12;3.33;;;;;;;20.93;100.00;101256.25;1764165;80;20971;-46
2021/07/08 01:03:31;;;;;;;6.35;4.05;;;;;;;20.89;100.00;101255.31;1757795;80;20963;-47
2021/07/08 01:05:58;;;;;;;5.92;4.20;;;;;;;20.88;100.00;101252.25;1770529;79;20968;-46
2021/07/08 01:08:25;;;;;;;4.67;4.00;;;;;;;20.88;100.00;101254.96;1770099;79;20988;-47
2021/07/08 01:10:52;;;;;;;4.17;3.60;;;;;;;20.86;100.00;101256.44;1772425;79;20967;-46
2021/07/08 01:13:20;;;;;;;4.03;3.50;;;;;;;20.88;100.00;101261.73;1773028;79;20968;-47
2021/07/08 01:15:47;;;;;;;4.75;4.35;;;;;;;20.89;100.00;101267.03;1771216;79;21791;-51
2021/07/08 01:18:13;;;;;;;6.75;4.00;;;;;;;20.89;100.00;101268.39;1768749;79;20925;-47
2021/07/08 01:20:40;;;;;;;4.80;3.47;;;;;;;20.88;100.00;101269.36;1784884;79;21481;-48
2021/07/08 01:23:06;;;;;;;4.62;4.20;;;;;;;20.88;100.00;101264.45;1758684;80;20977;-47
2021/07/08 01:25:36;;;;;;;4.55;3.85;;;;;;;20.86;100.00;101271.85;1758591;80;20950;-47
2021/07/08 01:28:05;;;;;;;3.75;3.30;;;;;;;20.85;100.00;101268.80;1757533;80;20959;-48
2021/07/08 01:30:31;;;;;;;8.23;3.40;;;;;;;20.85;100.00;101271.50;1759116;80;21429;-44
2021/07/08 01:32:58;;;;;;;6.70;3.47;;;;;;;20.86;100.00;101272.70;1761214;80;20991;-45
2021/07/08 01:35:25;;;;;;;3.98;3.10;;;;;;;20.88;100.00;101278.85;1753297;80;20991;-54
2021/07/08 01:37:52;;;;;;;5.87;3.52;;;;;;;20.90;100.00;101282.28;1759465;80;20943;-50
2021/07/08 01:40:18;;;;;;;5.72;3.50;;;;;;;20.93;100.00;101281.16;1744701;80;20977;-42
2021/07/08 01:42:47;;;;;;;6.42;3.90;;;;;;;20.94;100.00;101281.50;1744892;80;21009;-45
2021/07/08 01:45:15;;;;;;;3.90;3.50;;;;;;;20.91;100.00;101274.50;1748521;80;21349;-44
2021/07/08 01:47:43;;;;;;;5.70;3.47;;;;;;;20.91;100.00;101281.28;1755019;80;20959;-43
2021/07/08 01:50:13;;;;;;;7.00;3.62;;;;;;;20.91;100.00;101275.86;1755338;80;21486;-43
2021/07/08 01:52:41;;;;;;;5.87;3.67;;;;;;;20.91;100.00;101275.00;1752507;80;21309;-43
2021/07/08 01:55:09;;;;;;;4.15;3.65;;;;;;;20.88;100.00;101276.14;1753164;80;20971;-45
2021/07/08 01:57:42;;;;;;;4.00;3.60;;;;;;;20.88;100.00;101276.14;1748949;80;20939;-48
2021/07/08 02:00:12;;;;;;;5.10;3.83;;;;;;;20.84;100.00;101276.08;1753488;80;21010;-46
2021/07/08 02:02:39;;;;;;;4.53;3.42;;;;;;;20.81;100.00;101277.67;1758836;80;20971;-42
2021/07/08 02:05:06;;;;;;;6.17;3.77;;;;;;;20.82;100.00;101285.34;1750111;80;20997;-42
2021/07/08 02:07:33;;;;;;;4.10;3.65;;;;;;;20.84;100.00;101280.14;1752561;80;20986;-44
2021/07/08 02:10:00;;;;;;;9.53;4.55;;;;;;;20.87;100.00;101277.66;1750983;80;20967;-42
2021/07/08 02:12:27;;;;;;;4.33;3.52;;;;;;;20.89;100.00;101277.87;1760709;80;20984;-41
2021/07/08 02:14:53;;;;;;;6.00;3.65;;;;;;;20.90;100.00;101285.00;1730663;81;21034;-43
2021/07/08 02:17:20;;;;;;;4.90;4.35;;;;;;;20.92;100.00;101294.36;1723889;81;21000;-41
2021/07/08 02:19:46;;;;;;;5.15;3.85;;;;;;;20.93;100.00;101290.64;1739704;81;20972;-49
2021/07/08 02:22:13;;;;;;;6.40;3.77;;;;;;;20.92;100.00;101292.50;1736446;80;20977;-45
2021/07/08 02:24:39;;;;;;;7.05;4.60;;;;;;;20.90;100.00;101294.98;1738335;80;21406;-44
2021/07/08 02:27:06;;;;;;;4.42;3.70;;;;;;;20.88;100.00;101297.82;1737937;81;21003;-48
2021/07/08 02:29:33;;;;;;;4.10;3.30;;;;;;;20.87;100.00;101296.12;1739715;81;20971;-48
2021/07/08 02:31:59;;;;;;;4.20;3.20;;;;;;;20.85;100.00;101294.54;1739038;80;20950;-50
2021/07/08 02:34:26;;;;;;;6.83;4.30;;;;;;;20.84;100.00;101306.36;1735174;81;21446;-46
2021/07/08 02:36:53;;;;;;;7.03;6.08;;;;;;;20.84;100.00;101301.82;1781181;79;20939;-49
2021/07/08 02:39:20;;;;;;;12.95;11.05;;;;;;;20.85;100.00;101302.67;1784951;79;21380;-46
2021/07/08 02:41:46;;;;;;;12.65;11.08;;;;;;;20.86;100.00;101304.37;1781424;79;20999;-50
2021/07/08 02:44:14;;;;;;;6.92;6.17;;;;;;;20.86;100.00;101306.58;1757522;80;21314;-50
2021/07/08 02:46:40;;;;;;;4.83;4.10;;;;;;;20.87;100.00;101302.05;1789978;79;20923;-47
2021/07/08 02:49:06;;;;;;;4.50;3.25;;;;;;;20.88;100.00;101307.81;1758008;80;20971;-48
2021/07/08 02:51:33;;;;;;;5.62;3.47;;;;;;;20.87;100.00;101304.25;1788767;79;21402;-46
2021/07/08 02:53:59;;;;;;;5.25;3.70;;;;;;;20.88;100.00;101304.59;1759547;80;20914;-46
2021/07/08 02:56:26;;;;;;;7.45;2.98;;;;;;;20.91;100.00;101304.82;1783794;79;20986;-46
2021/07/08 02:58:52;;;;;;;4.15;3.15;;;;;;;20.92;100.00;101303.84;1750010;80;21473;-45
2021/07/08 03:01:19;;;;;;;4.28;3.08;;;;;;;20.94;100.00;101308.13;1785846;79;20947;-48
2021/07/08 03:03:46;;;;;;;4.53;2.92;;;;;;;20.95;100.00;101308.98;1787718;79;20921;-44
2021/07/08 03:06:12;;;;;;;4.08;2.92;;;;;;;20.96;100.00;101307.98;1772625;79;20962;-46
2021/07/08 03:08:40;;;;;;;4.62;3.17;;;;;;;20.98;100.00;101307.34;1767409;79;20943;-48
2021/07/08 03:11:09;;;;;;;3.47;2.72;;;;;;;21.02;100.00;101317.44;1768169;79;20956;-44
2021/07/08 03:13:37;;;;;;;5.75;3.17;;;;;;;21.04;100.00;101314.95;1771355;79;20948;-46
2021/07/08 03:16:05;;;;;;;8.20;3.00;;;;;;;21.06;100.00;101312.08;1769701;79;21541;-48
2021/07/08 03:18:34;;;;;;;4.85;3.27;;;;;;;21.07;100.00;101314.66;1770794;79;20914;-49
2021/07/08 03:21:00;;;;;;;3.98;3.00;;;;;;;21.08;100.00;101317.72;1786879;79;20943;-45
2021/07/08 03:23:27;;;;;;;3.67;3.25;;;;;;;21.12;100.00;101313.75;1771092;79;20950;-45
2021/07/08 03:25:53;;;;;;;2.90;2.40;;;;;;;21.14;100.00;101315.84;1771262;79;20934;-46
2021/07/08 03:28:20;;;;;;;3.30;2.70;;;;;;;21.18;100.00;101315.89;1773391;79;20971;-49
2021/07/08 03:30:47;;;;;;;7.10;3.50;;;;;;;21.22;100.00;101316.50;1772303;79;20955;-49
2021/07/08 03:33:13;;;;;;;4.05;3.42;;;;;;;21.27;100.00;101316.94;1772050;79;21429;-45
2021/07/08 03:35:40;;;;;;;5.20;3.72;;;;;;;21.33;100.00;101321.78;1766401;79;20963;-43
2021/07/08 03:38:06;;;;;;;3.98;3.40;;;;;;;21.40;100.00;101320.77;1773330;79;20951;-42
2021/07/08 03:40:33;;;;;;;4.95;2.87;;;;;;;21.47;100.00;101323.77;1773564;79;20957;-45
2021/07/08 03:43:00;;;;;;;6.92;3.52;;;;;;;21.51;100.00;101327.42;1771968;79;20951;-42
2021/07/08 03:45:29;;;;;;;4.80;3.52;;;;;;;21.55;100.00;101319.88;1770909;79;20998;-41
2021/07/08 03:47:58;;;;;;;3.87;2.92;;;;;;;21.61;100.00;101322.01;1770609;79;20967;-41
2021/07/08 03:50:25;;;;;;;4.17;3.30;;;;;;;21.65;100.00;101322.09;1749670;80;20985;-43
2021/07/08 03:52:51;;;;;;;6.08;3.27;;;;;;;21.69;100.00;101322.15;1759782;80;21426;-54
2021/07/08 03:55:21;;;;;;;4.72;2.90;;;;;;;21.75;100.00;101323.46;1786983;79;20968;-41
2021/07/08 03:57:55;;;;;;;3.83;3.00;;;;;;;21.78;100.00;101321.81;1787851;79;21059;-39
2021/07/08 04:00:33;;;;;;;3.50;3.20;;;;;;;21.82;100.00;101326.82;1757074;80;21580;-41
2021/07/08 04:03:03;;;;;;;4.12;2.83;;;;;;;21.86;100.00;101318.39;1782079;79;21459;-43
2021/07/08 04:05:30;;;;;;;6.05;2.90;;;;;;;21.91;100.00;101325.09;1748310;80;21035;-42
2021/07/08 04:07:57;;;;;;;4.15;3.40;;;;;;;21.96;100.00;101330.95;1759661;80;20946;-42
2021/07/08 04:10:25;;;;;;;6.65;3.60;;;;;;;22.00;100.00;101334.25;1759494;80;20934;-40
2021/07/08 04:12:52;;;;;;;4.15;3.15;;;;;;;22.05;100.00;101337.39;1775349;79;20968;-41
2021/07/08 04:15:19;;;;;;;3.12;2.83;;;;;;;22.08;100.00;101334.89;1753696;80;20926;-40
2021/07/08 04:17:46;;;;;;;4.75;3.92;;;;;;;22.12;100.00;101339.01;1784970;79;20925;-43
2021/07/08 04:20:18;;;;;;;3.70;3.20;;;;;;;22.14;100.00;101339.22;1778312;79;20963;-41
2021/07/08 04:22:46;;;;;;;;;;;;;;;22.17;100.00;101334.85;1777853;79;20990;-39
2021/07/08 04:25:13;;;;;;;6.00;3.35;;;;;;;22.22;100.00;101346.17;1779538;79;20108;-40
2021/07/08 04:27:40;;;;;;;4.33;3.70;;;;;;;22.25;100.00;101345.02;1776910;79;20953;-44
2021/07/08 04:30:09;;;;;;;5.03;3.55;;;;;;;22.28;100.00;101346.12;1780827;79;20984;-41
2021/07/08 04:32:36;;;;;;;4.80;3.42;;;;;;;22.33;100.00;101348.41;1778543;79;20908;-41
2021/07/08 04:35:03;;;;;;;7.75;5.80;;;;;;;22.36;100.00;101348.10;1778997;79;20972;-40
2021/07/08 04:37:30;;;;;;;6.28;4.15;;;;;;;22.39;100.00;101345.09;1776296;79;20957;-40
2021/07/08 04:39:58;;;;;;;5.70;3.60;;;;;;;22.41;100.00;101351.23;1772963;79;20952;-42
2021/07/08 04:42:24;;;;;;;4.85;3.70;;;;;;;22.44;100.00;101353.15;1781384;79;21473;-40
2021/07/08 04:44:51;;;;;;;3.70;3.30;;;;;;;22.48;100.00;101357.81;1755799;80;20980;-41
2021/07/08 04:47:18;;;;;;;4.70;3.67;;;;;;;22.52;100.00;101357.00;1771534;79;20945;-42
2021/07/08 04:49:44;;;;;;;4.03;3.62;;;;;;;22.56;100.00;101360.64;1767916;79;20954;-41
2021/07/08 04:52:11;;;;;;;6.78;3.85;;;;;;;22.59;100.00;101363.06;1774592;79;20930;-42
2021/07/08 04:54:38;;;;;;;7.10;3.87;;;;;;;22.62;100.00;101364.12;1771965;79;20948;-41
2021/07/08 04:57:04;;;;;;;4.50;4.00;;;;;;;22.66;100.00;101368.27;1774685;79;20927;-42
2021/07/08 04:59:32;;;;;;;4.92;4.05;;;;;;;22.70;100.00;101366.09;1773768;79;21040;-43
2021/07/08 05:01:58;;;;;;;5.90;3.72;;;;;;;22.75;100.00;101362.94;1772911;79;21015;-41
2021/07/08 05:04:25;;;;;;;5.58;4.08;;;;;;;22.80;100.00;101366.92;1773244;79;20972;-46
2021/07/08 05:06:52;;;;;;;5.75;3.50;;;;;;;22.83;100.00;101366.66;1770657;79;20956;-41
2021/07/08 05:09:19;;;;;;;5.78;3.85;;;;;;;22.89;100.00;101371.98;1771512;79;21369;-44
2021/07/08 05:11:45;;;;;;;6.60;4.37;;;;;;;22.93;100.00;101375.25;1770674;79;20985;-40
2021/07/08 05:14:12;;;;;;;5.10;3.77;;;;;;;22.97;100.00;101376.20;1783004;79;20944;-42
2021/07/08 05:16:39;;;;;;;7.22;3.72;;;;;;;23.00;100.00;101375.90;1785875;79;21475;-41
2021/07/08 05:19:05;;;;;;;5.05;4.08;;;;;;;23.06;100.00;101374.47;1772523;79;20950;-42
2021/07/08 05:21:50;;;;;;;6.80;3.62;;;;;;;23.10;100.00;101379.44;1771461;79;21467;-41
2021/07/08 05:24:48;;;;;;;5.30;4.72;;;;;;;23.15;100.00;101378.14;1635739;86;21133;-38
2021/07/08 05:27:18;;;;;;;5.45;4.40;;;;;;;23.19;100.00;101379.56;1643439;86;21010;-41
2021/07/08 05:29:45;;;;;;;6.83;4.70;;;;;;;23.23;100.00;101385.03;1644700;86;21025;-42
2021/07/08 05:32:14;;;;;;;4.92;3.98;;;;;;;23.27;100.00;101387.82;1645755;86;20993;-40
2021/07/08 05:34:41;;;;;;;4.20;3.70;;;;;;;23.32;100.00;101384.99;1648510;86;21461;-42
2021/07/08 05:37:08;;;;;;;5.17;3.98;;;;;;;23.37;100.00;101392.70;1641846;86;21553;-40
2021/07/08 05:39:35;;;;;;;6.62;4.08;;;;;;;23.42;100.00;101390.90;1643568;86;21458;-44
2021/07/08 05:42:02;;;;;;;4.80;4.25;;;;;;;23.46;100.00;101390.45;1642924;86;21074;-42
2021/07/08 05:44:30;;;;;;;4.78;4.33;;;;;;;23.48;100.00;101387.05;1646137;86;20983;-44
2021/07/08 05:46:57;;;;;;;4.58;4.03;;;;;;;23.53;100.00;101391.53;1644986;86;21019;-42
2021/07/08 05:49:23;;;;;;;5.28;4.17;;;;;;;23.54;100.00;101391.90;1644763;86;21055;-44
2021/07/08 05:51:50;;;;;;;5.67;4.10;;;;;;;23.56;100.00;101389.00;1649392;86;21033;-43
2021/07/08 05:54:16;;;;;;;6.20;3.85;;;;;;;23.60;100.00;101389.57;1644401;86;21002;-44
2021/07/08 05:56:43;;;;;;;5.62;3.83;;;;;;;23.65;100.00;101390.81;1645511;86;21481;-43
2021/07/08 05:59:09;;;;;;;6.42;4.47;;;;;;;23.69;100.00;101386.80;1647448;84;21058;-41
2021/07/08 06:01:36;;;;;;;6.53;4.53;;;;;;;23.73;100.00;101386.84;1701213;80;21450;-44
2021/07/08 06:04:03;;;;;;;5.72;4.50;;;;;;;23.78;100.00;101390.47;1759438;80;20942;-42
2021/07/08 06:06:30;;;;;;;5.55;5.05;;;;;;;23.82;100.00;101391.05;1762340;80;21432;-40
2021/07/08 06:08:57;;;;;;;10.18;4.55;;;;;;;23.86;100.00;101386.47;1760741;80;20953;-44
2021/07/08 06:11:23;;;;;;;8.15;4.87;;;;;;;23.91;100.00;101381.92;1755811;80;20992;-43
2021/07/08 06:13:50;;;;;;;7.22;5.75;;;;;;;23.92;100.00;101384.50;1756149;80;20965;-44
2021/07/08 06:16:17;;;;;;;6.50;4.83;;;;;;;23.95;100.00;101382.83;1758589;80;20946;-43
2021/07/08 06:18:44;;;;;;;4.87;4.03;;;;;;;23.99;100.00;101380.66;1762090;80;21118;-42
2021/07/08 06:21:13;;;;;;;6.65;3.83;;;;;;;24.05;100.00;101392.80;1759292;80;21012;-44
2021/07/08 06:23:39;;;;;;;4.60;4.00;;;;;;;24.10;100.00;101386.37;1760671;80;20938;-43
2021/07/08 06:26:05;;;;;;;8.23;5.67;;;;;;;24.16;100.00;101386.58;1786085;78;20962;-43
2021/07/08 06:28:34;;;;;;;6.05;5.45;;;;;;;24.23;100.00;101389.55;1786411;78;20935;-43
2021/07/08 06:31:01;;;;;;;6.53;5.00;;;;;;;24.29;100.00;101396.23;1787643;78;21006;-44
2021/07/08 06:33:28;;;;;;;5.05;4.08;;;;;;;24.34;100.00;101396.61;1782507;78;20932;-44
2021/07/08 06:35:54;;;;;;;6.03;3.70;;;;;;;24.40;100.00;101397.36;1786867;78;21460;-45
2021/07/08 06:38:21;;;;;;;4.65;3.62;;;;;;;24.44;100.00;101396.01;1783338;79;20967;-49
2021/07/08 06:40:49;;;;;;;5.33;3.85;;;;;;;24.49;100.00;101396.42;1784426;79;21006;-47
2021/07/08 06:44:11;;;;;;;4.47;3.83;;;;;;;24.55;100.00;101400.41;1788490;79;20995;-48
2021/07/08 06:47:13;;;;;;;4.05;3.65;;;;;;;24.60;100.00;101393.97;1514562;93;21500;-46
2021/07/08 06:49:38;;;;;;;6.58;4.85;;;;;;;24.70;100.00;101400.69;1515794;93;21012;-45
2021/07/08 06:52:05;;;;;;;7.60;4.03;;;;;;;24.75;100.00;101394.24;1496893;94;21096;-47
2021/07/08 06:54:32;;;;;;;6.78;3.37;;;;;;;24.81;100.00;101393.08;1546311;91;21068;-43
2021/07/08 06:56:59;;;;;;;5.80;4.03;;;;;;;24.88;100.00;101400.11;1544092;91;21024;-46
2021/07/08 06:59:26;;;;;;;5.80;3.65;;;;;;;24.95;100.00;101398.45;1551003;91;21100;-43
2021/07/08 07:01:52;;;;;;;7.22;3.60;;;;;;;24.99;100.00;101401.19;1531708;91;21034;-47
2021/07/08 07:07:47;;;;;;;4.37;3.75;;;;;;;25.08;100.00;101402.11;1492517;94;21648;-45
2021/07/08 07:10:15;;;;;;;4.85;3.27;;;;;;;25.14;100.00;101404.16;1492014;94;21097;-45
2021/07/08 07:12:45;;;;;;;3.90;3.50;;;;;;;25.17;100.00;101403.87;1494598;94;21852;-45
2021/07/08 07:15:15;;;;;;;8.18;3.52;;;;;;;25.22;100.00;101405.63;1492960;94;21635;-45
2021/07/08 07:17:41;;;;;;;11.43;4.65;;;;;;;25.29;100.00;101400.87;1492566;94;21705;-44
2021/07/08 07:20:10;;;;;;;9.90;4.78;;;;;;;25.34;100.00;101401.23;1493325;94;21103;-45
2021/07/08 07:22:37;;;;;;;6.72;4.10;;;;;;;25.38;100.00;101402.11;1519071;91;21552;-42
2021/07/08 07:25:06;;;;;;;8.33;4.58;;;;;;;25.44;100.00;101407.41;1585424;88;21061;-42
2021/07/08 07:27:32;;;;;;;7.47;3.35;;;;;;;25.47;100.00;101409.28;1603051;88;21452;-43
2021/07/08 07:30:04;;;;;;;5.10;3.47;;;;;;;25.52;100.00;101407.43;1599434;88;21031;-42
2021/07/08 07:32:31;;;;;;;5.62;3.67;;;;;;;25.58;100.00;101408.67;1598229;88;20966;-42
2021/07/08 07:34:59;;;;;;;6.95;3.60;;;;;;;25.61;100.00;101409.69;1600864;88;21853;-43
2021/07/08 07:37:27;;;;;;;4.97;2.80;;;;;;;25.65;100.00;101411.05;1588730;88;21508;-47
2021/07/08 07:39:54;;;;;;;3.60;2.90;;;;;;;25.69;100.00;101402.88;1575630;89;21026;-46
2021/07/08 07:42:20;;;;;;;3.92;2.55;;;;;;;25.73;100.00;101404.27;1577846;89;21016;-46
2021/07/08 07:44:48;;;;;;;4.70;3.27;;;;;;;25.78;100.00;101407.36;1596710;86;21014;-45
2021/07/08 07:47:15;;;;;;;8.70;4.03;;;;;;;25.83;100.00;101411.80;1631283;86;21023;-44
2021/07/08 07:49:43;;;;;;;6.65;3.50;;;;;;;25.87;100.00;101404.15;1629366;86;21013;-46
2021/07/08 07:52:16;;;;;;;4.35;2.90;;;;;;;25.90;100.00;101403.32;1625689;86;21105;-48
2021/07/08 07:54:39;;;;;;;5.97;2.85;;;;;;;25.95;100.00;101403.30;1626210;86;21454;-46
2021/07/08 07:57:06;;;;;;;6.72;2.70;;;;;;;26.00;100.00;101403.66;1631462;86;20974;-48
2021/07/08 07:59:33;;;;;;;4.55;2.75;;;;;;;26.06;100.00;101405.73;1631163;85;21086;-47
2021/07/08 08:02:01;;;;;;;7.25;2.85;;;;;;;26.11;100.00;101407.44;1646965;84;20985;-49
2021/07/08 08:04:40;;;;;;;6.22;2.87;;;;;;;26.17;100.00;101405.91;1678068;84;20972;-55
2021/07/08 08:09:43;;;;;;;2.65;2.22;;;;;;;26.30;100.00;101409.82;1685796;84;20982;-45
2021/07/08 08:12:10;;;;;;;3.95;2.60;;;;;;;26.39;100.00;101411.21;1682880;84;21098;-44
2021/07/08 08:14:37;;;;;;;2.92;2.50;;;;;;;26.43;99.50;101407.94;1690995;82;20956;-47
2021/07/08 08:17:04;;;;;;;3.45;2.37;;;;;;;26.50;94.20;101402.65;1707171;83;21584;-53
2021/07/08 08:19:31;;;;;;;3.45;2.90;;;;;;;26.53;89.80;101403.70;1706309;83;21017;-54
2021/07/08 08:21:58;;;;;;;3.47;2.83;;;;;;;26.58;90.36;101401.30;1711815;78;20982;-45
2021/07/08 08:24:25;;;;;;;4.15;2.33;;;;;;;26.64;94.44;101397.89;1795151;78;20975;-55
2021/07/08 08:26:52;;;;;;;4.42;2.83;;;;;;;26.70;92.33;101402.66;1793688;78;20963;-41
2021/07/08 08:29:20;;;;;;;4.47;2.50;;;;;;;26.76;89.37;101403.34;1793637;78;20958;-42
2021/07/08 08:31:48;;;;;;;3.72;2.25;;;;;;;26.83;89.65;101407.59;1790091;78;21001;-41
2021/07/08 08:34:15;;;;;;;3.37;2.72;;;;;;;26.88;90.43;101409.28;1793739;78;21014;-44
2021/07/08 08:36:43;;;;;;;8.43;2.87;;;;;;;26.93;90.98;101410.14;1793095;77;20956;-53
2021/07/08 08:39:10;;;;;;;2.87;2.58;;;;;;;26.99;93.42;101403.98;1813118;77;20937;-45
2021/07/08 08:41:36;;;;;;;4.75;2.42;;;;;;;27.06;92.48;101407.70;1810441;77;20965;-48
2021/07/08 08:44:04;;;;;;;2.62;2.35;;;;;;;27.14;93.67;101410.43;1802553;77;20900;-43
2021/07/08 08:46:34;;;;;;;5.05;2.70;;;;;;;27.23;91.25;101413.16;1789262;77;21570;-45
2021/07/08 08:49:04;;;;;;;;;;;;;;;27.29;89.88;101412.44;1817394;77;20985;-44
2021/07/08 08:51:32;;;;;;;2.80;2.33;;;;;;;27.35;82.21;101419.97;1806336;77;20127;-46
2021/07/08 08:53:59;;;;;;;3.40;3.00;;;;;;;27.41;81.44;101411.88;1811087;77;20944;-47
2021/07/08 08:56:27;;;;;;;4.28;2.85;;;;;;;27.45;79.21;101413.76;1811504;77;21483;-45
2021/07/08 08:58:54;;;;;;;2.65;2.12;;;;;;;27.48;81.43;101408.44;1813441;77;21614;-45
2021/07/08 09:01:20;;;;;;;3.25;2.35;;;;;;;27.51;78.67;101406.70;1817669;77;20996;-45
2021/07/08 09:03:47;;;;;;;3.67;2.65;;;;;;;27.58;74.75;101408.55;1811719;77;21000;-41
2021/07/08 09:06:16;;;;;;;3.77;2.70;;;;;;;27.64;80.24;101405.60;1808203;77;20969;-43
2021/07/08 09:08:47;;;;;;;4.22;2.42;;;;;;;27.69;80.88;101410.02;1813101;77;20917;-42
2021/07/08 09:11:19;;;;;;;5.03;2.20;;;;;;;27.75;79.56;101416.69;1812702;77;20980;-46
2021/07/08 09:14:01;;;;;;;3.52;2.25;;;;;;;27.79;74.24;101416.65;1812098;77;20934;-49
2021/07/08 09:16:34;;;;;;;2.27;2.08;;;;;;;27.83;70.96;101416.14;1819144;77;21443;-47
2021/07/08 09:19:10;;;;;;;4.12;3.08;;;;;;;27.88;71.04;101414.23;1815387;77;20951;-47
2021/07/08 09:21:47;;;;;;;2.62;1.87;;;;;;;27.92;73.72;101407.38;1809839;77;21387;-49
2021/07/08 09:24:19;;;;;;;6.12;2.92;;;;;;;27.97;73.28;101406.80;1815345;77;20954;-47
2021/07/08 09:26:59;;;;;;;2.95;2.40;;;;;;;28.04;68.98;101403.15;1813221;77;21011;-47
2021/07/08 09:29:32;;;;;;;6.37;2.95;;;;;;;28.11;71.39;101409.29;1813172;77;20972;-45
2021/07/08 09:32:08;;;;;;;5.45;2.80;;;;;;;28.17;72.70;101405.31;1811124;77;20944;-41
2021/07/08 09:34:35;;;;;;;3.60;2.42;;;;;;;28.18;67.85;101402.05;1805881;77;21554;-43
2021/07/08 09:37:22;;;;;;;5.42;2.60;;;;;;;28.14;67.31;101404.28;1811782;77;20973;-43
2021/07/08 09:39:54;;;;;;;2.85;2.50;;;;;;;28.10;71.39;101403.45;1814173;77;21410;-44
2021/07/08 09:42:44;;;;;;;4.12;2.35;;;;;;;28.09;75.56;101401.23;1815170;77;20925;-42
2021/07/08 09:45:15;;;;;;;4.42;2.45;;;;;;;28.11;70.10;101394.22;1814631;77;20960;-44
2021/07/08 09:47:43;;;;;;;2.98;2.22;;;;;;;28.15;71.84;101400.52;1815735;77;20916;-51
2021/07/08 09:50:32;;;;;;;2.12;1.95;;;;;;;28.18;68.75;101398.78;1816512;77;20973;-45
2021/07/08 09:53:08;;;;;;;4.03;1.95;;;;;;;28.23;66.03;101400.98;1817899;77;20922;-45
2021/07/08 09:58:32;;;;;;;4.95;2.27;;;;;;;28.28;62.96;101398.53;1817804;77;21423;-44
2021/07/08 10:01:13;;;;;;;2.70;2.20;;;;;;;28.26;64.36;101397.86;1811788;77;21525;-44
2021/07/08 10:03:41;;;;;;;;;;;;;;;28.26;68.94;101400.08;1814477;77;20988;-44
2021/07/08 10:06:09;;;;;;;2.65;1.67;;;;;;;28.29;69.17;101396.64;1814658;77;20149;-47
2021/07/08 10:08:37;;;;;;;3.85;2.22;;;;;;;28.31;63.88;101386.34;1812566;77;20936;-48
2021/07/08 10:11:05;;;;;;;2.83;2.22;;;;;;;28.36;63.30;101390.76;1811966;77;20929;-47
2021/07/08 10:13:35;;;;;;;3.30;2.10;;;;;;;28.40;64.29;101387.47;1813444;77;20933;-43
2021/07/08 10:16:04;;;;;;;3.52;1.87;;;;;;;28.46;64.02;101387.27;1816224;77;20968;-48
2021/07/08 10:18:32;;;;;;;4.03;2.92;;;;;;;28.52;63.59;101376.91;1807918;77;20944;-46
2021/07/08 10:20:59;;;;;;;7.33;1.90;;;;;;;28.57;63.77;101387.33;1811938;77;21019;-47
2021/07/08 10:23:26;;;;;;;4.45;2.20;;;;;;;28.61;60.00;101381.81;1813276;77;21360;-46
2021/07/08 10:25:53;;;;;;;3.05;1.98;;;;;;;28.65;60.04;101383.13;1809661;77;20977;-45
2021/07/08 10:28:19;;;;;;;2.62;2.10;;;;;;;28.69;60.86;101378.98;1810076;77;20956;-45
2021/07/08 10:30:48;;;;;;;6.72;2.37;;;;;;;28.73;55.56;101379.45;1816353;77;21423;-47
2021/07/08 10:33:19;;;;;;;3.42;1.85;;;;;;;28.78;55.87;101376.98;1791197;79;21471;-47
2021/07/08 10:35:50;;;;;;;2.85;2.02;;;;;;;28.82;61.99;101373.69;1813440;77;21007;-47
2021/07/08 10:38:41;;;;;;;4.92;2.27;;;;;;;28.89;56.59;101376.54;1821999;77;20935;-45
2021/07/08 10:41:17;;;;;;;4.58;2.47;;;;;;;28.94;56.47;101378.72;1819929;77;20950;-45
2021/07/08 10:43:45;;;;;;;5.62;1.90;;;;;;;28.98;59.24;101370.42;1823813;77;21387;-43
2021/07/08 10:46:14;;;;;;;5.35;2.47;;;;;;;29.01;56.99;101380.52;1822186;77;20966;-43
2021/07/08 10:48:48;;;;;;;3.92;2.12;;;;;;;28.99;57.19;101377.11;1822093;77;20963;-42
2021/07/08 10:51:30;;;;;;;3.83;2.22;;;;;;;28.99;58.05;101375.73;1823030;77;20938;-42
2021/07/08 10:53:56;;;;;;;4.42;2.47;;;;;;;29.02;61.57;101377.25;1826063;77;20934;-43
2021/07/08 10:56:32;;;;;;;3.40;2.25;;;;;;;29.02;63.77;101373.13;1798905;77;21002;-43
2021/07/08 10:58:58;;;;;;;4.17;2.40;;;;;;;29.01;63.97;101363.20;1822244;77;20982;-43
2021/07/08 11:01:39;;;;;;;3.50;1.98;;;;;;;29.01;69.93;101365.42;1818200;77;21406;-44
2021/07/08 11:04:07;;;;;;;6.70;2.20;;;;;;;29.03;67.46;101365.21;1821404;77;20963;-44
2021/07/08 11:06:42;;;;;;;2.40;2.10;;;;;;;29.07;59.25;101363.31;1818638;77;20942;-44
2021/07/08 11:09:18;;;;;;;2.58;2.17;;;;;;;29.08;57.65;101358.17;1819251;77;20930;-45
2021/07/08 11:11:51;;;;;;;2.95;2.20;;;;;;;29.11;60.97;101363.27;1820299;77;20924;-43
2021/07/08 11:14:26;;;;;;;2.77;1.80;;;;;;;29.15;63.51;101361.51;1820234;77;21453;-46
2021/07/08 11:17:12;;;;;;;3.98;2.20;;;;;;;29.18;63.76;101361.12;1824058;77;20966;-48
2021/07/08 11:19:39;;;;;;;3.17;1.80;;;;;;;29.20;68.33;101359.04;1823485;77;20926;-45
2021/07/08 11:22:17;;;;;;;3.58;1.77;;;;;;;29.22;63.14;101360.55;1819303;77;20943;-43
2021/07/08 11:24:50;;;;;;;2.85;2.10;;;;;;;29.26;63.04;101359.66;1823234;77;20939;-46
2021/07/08 11:27:30;;;;;;;2.80;1.75;;;;;;;29.27;62.50;101359.45;1826848;77;20939;-42
2021/07/08 11:29:59;;;;;;;2.67;1.80;;;;;;;29.29;60.28;101360.13;1823138;77;21074;-46
2021/07/08 11:32:58;;;;;;;4.50;2.15;;;;;;;29.30;56.12;101353.58;1828350;77;21026;-45
2021/07/08 11:35:39;;;;;;;2.30;2.08;;;;;;;29.33;53.12;101357.33;1644459;85;21066;-43
2021/07/08 11:38:14;;;;;;;2.47;2.27;;;;;;;29.39;60.80;101356.23;1650404;85;20999;-51